Time;durP1;ratioP1;P1;durP2;ratioP2;P2;SDS_P1;SDS_P2;PMS_P1;PMS_P2;Temp;Humidity;BMP_temperature;BMP_pressure;BME280_temperature;BME280_humidity;BME280_pressure;Samples;Min_cycle;Max_cycle;Signal;HPM_P1;HPM_P2
2024/01/21 00:01:49;;;;;;;3.97;3.53;;;;;;;;;;4943350;28;20256;-84
2024/01/21 00:04:15;;;;;;;3.23;2.93;;;;;;;;;;4991151;28;20221;-85
2024/01/21 00:06:42;;;;;;;3.47;3.17;;;;;;;;;;4980365;28;20229;-86
2024/01/21 00:09:12;;;;;;;3.57;3.23;;;;;;;;;;4980423;28;20225;-84
2024/01/21 00:11:43;;;;;;;3.73;3.40;;;;;;;;;;4955268;28;20231;-84
2024/01/21 00:14:08;;;;;;;4.20;3.10;;;;;;;;;;4991729;28;20679;-85
2024/01/21 00:16:34;;;;;;;3.20;2.90;;;;;;;;;;4964316;28;20254;-85
2024/01/21 00:19:05;;;;;;;4.67;3.70;;;;;;;;;;4940811;28;20309;-86
2024/01/21 00:21:30;;;;;;;3.80;3.40;;;;;;;;;;4953346;28;20722;-85
2024/01/21 00:23:56;;;;;;;4.10;3.10;;;;;;;;;;4966985;28;20214;-85
2024/01/21 00:26:21;;;;;;;4.30;3.30;;;;;;;;;;4953316;28;20617;-87
2024/01/21 00:28:52;;;;;;;3.57;3.17;;;;;;;;;;4924111;29;20723;-87
2024/01/21 00:31:17;;;;;;;4.30;3.40;;;;;;;;;;4948799;28;20227;-86
2024/01/21 00:33:47;;;;;;;3.60;3.27;;;;;;;;;;4941361;28;20248;-84
2024/01/21 00:36:13;;;;;;;3.67;3.37;;;;;;;;;;4955587;28;20218;-85
2024/01/21 00:38:38;;;;;;;3.90;3.60;;;;;;;;;;4972638;28;20546;-86
2024/01/21 00:41:04;;;;;;;3.40;3.10;;;;;;;;;;4952985;28;20241;-86
2024/01/21 00:43:32;;;;;;;4.00;3.53;;;;;;;;;;4960132;28;20273;-86
2024/01/21 00:46:04;;;;;;;4.17;3.73;;;;;;;;;;4950021;28;20245;-85
2024/01/21 00:48:29;;;;;;;4.07;3.43;;;;;;;;;;4954392;28;20263;-85
2024/01/21 00:50:55;;;;;;;3.60;3.30;;;;;;;;;;4940993;28;20296;-86
2024/01/21 00:53:20;;;;;;;3.67;3.30;;;;;;;;;;4939971;28;20222;-86
2024/01/21 00:55:46;;;;;;;4.27;3.57;;;;;;;;;;4961917;28;20221;-85
2024/01/21 00:58:11;;;;;;;3.77;3.37;;;;;;;;;;4966967;28;20591;-86
2024/01/21 01:00:37;;;;;;;3.70;3.40;;;;;;;;;;4987046;28;20238;-87
2024/01/21 01:03:04;;;;;;;4.83;3.57;;;;;;;;;;4960198;28;20229;-86
2024/01/21 01:05:29;;;;;;;4.90;3.77;;;;;;;;;;4958320;28;20569;-86
2024/01/21 01:07:55;;;;;;;5.23;4.13;;;;;;;;;;4982152;28;20601;-88
2024/01/21 01:10:21;;;;;;;3.80;3.50;;;;;;;;;;4924363;28;20299;-85
2024/01/21 01:12:46;;;;;;;4.10;3.50;;;;;;;;;;4936475;28;20223;-86
2024/01/21 01:15:12;;;;;;;5.30;3.73;;;;;;;;;;4939181;28;20219;-86
2024/01/21 01:17:37;;;;;;;5.63;3.73;;;;;;;;;;4953704;28;20296;-87
2024/01/21 01:20:05;;;;;;;4.47;4.07;;;;;;;;;;4974991;28;20230;-87
2024/01/21 01:22:33;;;;;;;4.63;3.93;;;;;;;;;;4994524;28;20703;-85
2024/01/21 01:25:01;;;;;;;5.97;4.23;;;;;;;;;;4974599;28;20321;-87
2024/01/21 01:27:27;;;;;;;4.90;4.37;;;;;;;;;;4956117;28;20223;-86
2024/01/21 01:29:52;;;;;;;5.73;4.40;;;;;;;;;;4925008;29;20704;-86
2024/01/21 01:32:20;;;;;;;4.63;4.20;;;;;;;;;;4960407;28;20223;-88
2024/01/21 01:34:46;;;;;;;5.33;4.33;;;;;;;;;;4976292;28;20222;-85
2024/01/21 01:37:11;;;;;;;6.60;4.87;;;;;;;;;;4958914;28;20237;-87
2024/01/21 01:39:37;;;;;;;4.97;4.47;;;;;;;;;;4971787;28;20262;-86
2024/01/21 01:42:03;;;;;;;5.03;4.50;;;;;;;;;;4969798;28;20270;-85
2024/01/21 01:44:29;;;;;;;5.00;4.50;;;;;;;;;;4954140;28;20699;-88
2024/01/21 01:46:55;;;;;;;6.47;4.70;;;;;;;;;;4977234;28;20232;-89
2024/01/21 01:49:21;;;;;;;7.00;4.50;;;;;;;;;;4971007;28;20246;-87
2024/01/21 01:51:47;;;;;;;5.73;4.60;;;;;;;;;;4943958;28;20218;-86
2024/01/21 01:54:16;;;;;;;4.93;4.43;;;;;;;;;;4958650;28;20218;-86
2024/01/21 01:56:41;;;;;;;5.83;4.30;;;;;;;;;;4943869;28;20305;-86
2024/01/21 01:59:09;;;;;;;5.00;4.50;;;;;;;;;;4943637;28;20599;-87
2024/01/21 02:01:38;;;;;;;5.67;4.70;;;;;;;;;;4976684;28;20699;-86
2024/01/21 02:04:06;;;;;;;5.67;4.50;;;;;;;;;;4957190;28;20227;-87
2024/01/21 02:06:32;;;;;;;5.53;4.50;;;;;;;;;;4946935;28;20302;-86
2024/01/21 02:08:58;;;;;;;5.87;5.13;;;;;;;;;;5000484;28;20722;-88
2024/01/21 02:11:24;;;;;;;5.07;4.57;;;;;;;;;;4982923;28;20229;-89
2024/01/21 02:13:49;;;;;;;6.37;5.17;;;;;;;;;;4980170;28;20226;-89
2024/01/21 02:16:15;;;;;;;4.47;3.87;;;;;;;;;;4949364;28;20226;-88
2024/01/21 02:18:42;;;;;;;5.27;4.77;;;;;;;;;;4950829;28;20983;-87
2024/01/21 02:21:10;;;;;;;5.87;5.03;;;;;;;;;;4966266;28;20249;-87
2024/01/21 02:23:38;;;;;;;6.27;4.60;;;;;;;;;;4959145;28;20237;-88
2024/01/21 02:26:06;;;;;;;5.17;4.67;;;;;;;;;;4955892;28;20219;-87
2024/01/21 02:28:32;;;;;;;4.90;4.37;;;;;;;;;;4947970;28;20395;-87
2024/01/21 02:30:58;;;;;;;4.90;4.40;;;;;;;;;;4963099;28;20242;-87
2024/01/21 02:33:23;;;;;;;4.93;4.53;;;;;;;;;;4942435;28;20233;-88
2024/01/21 02:35:49;;;;;;;4.80;4.20;;;;;;;;;;4935858;28;20221;-86
2024/01/21 02:38:14;;;;;;;4.30;3.90;;;;;;;;;;4977974;28;20229;-91
2024/01/21 02:40:40;;;;;;;4.47;4.07;;;;;;;;;;4961853;28;20250;-86
2024/01/21 02:43:07;;;;;;;4.83;4.03;;;;;;;;;;4934864;28;20233;-88
2024/01/21 02:45:33;;;;;;;4.27;3.87;;;;;;;;;;4955307;28;20266;-87
2024/01/21 02:47:59;;;;;;;7.77;4.43;;;;;;;;;;4917434;28;20237;-87
2024/01/21 02:50:24;;;;;;;4.90;3.83;;;;;;;;;;4944559;28;20226;-87
2024/01/21 02:52:50;;;;;;;6.63;4.13;;;;;;;;;;4941246;28;20278;-87
2024/01/21 02:55:15;;;;;;;4.67;4.17;;;;;;;;;;4955205;28;20225;-88
2024/01/21 02:57:41;;;;;;;4.57;4.10;;;;;;;;;;4953195;28;20735;-86
2024/01/21 03:00:09;;;;;;;6.00;4.40;;;;;;;;;;4942729;28;20599;-87
2024/01/21 03:02:37;;;;;;;4.63;4.10;;;;;;;;;;4970013;28;20225;-86
2024/01/21 03:05:03;;;;;;;4.53;4.13;;;;;;;;;;4966664;28;20230;-89
2024/01/21 03:07:29;;;;;;;4.23;3.53;;;;;;;;;;4978601;28;20226;-87
2024/01/21 03:09:56;;;;;;;4.30;3.90;;;;;;;;;;4956949;28;20254;-87
2024/01/21 03:12:22;;;;;;;5.30;3.80;;;;;;;;;;4955426;28;20227;-88
2024/01/21 03:14:50;;;;;;;4.00;3.53;;;;;;;;;;4939157;28;20227;-88
2024/01/21 03:17:16;;;;;;;4.47;3.70;;;;;;;;;;4965123;28;20222;-88
2024/01/21 03:19:41;;;;;;;4.83;4.33;;;;;;;;;;4966596;28;20229;-88
2024/01/21 03:22:09;;;;;;;3.93;3.53;;;;;;;;;;4960773;28;20673;-87
2024/01/21 03:24:35;;;;;;;4.13;3.37;;;;;;;;;;4955936;28;20221;-88
2024/01/21 03:27:00;;;;;;;4.63;3.47;;;;;;;;;;4981375;28;20234;-88
2024/01/21 03:29:26;;;;;;;4.07;3.70;;;;;;;;;;4951818;28;20352;-88
2024/01/21 03:31:51;;;;;;;4.23;3.83;;;;;;;;;;4990339;28;20225;-88
2024/01/21 03:34:17;;;;;;;3.40;3.10;;;;;;;;;;4958417;28;20222;-88
2024/01/21 03:36:42;;;;;;;3.70;3.40;;;;;;;;;;4942830;28;20304;-88
2024/01/21 03:39:08;;;;;;;3.63;3.20;;;;;;;;;;4969025;28;20237;-86
2024/01/21 03:41:36;;;;;;;3.93;3.17;;;;;;;;;;4970563;28;20221;-87
2024/01/21 03:44:01;;;;;;;3.00;2.80;;;;;;;;;;4982120;28;20227;-89
2024/01/21 03:46:27;;;;;;;3.17;2.87;;;;;;;;;;4969980;28;20282;-88
2024/01/21 03:48:55;;;;;;;3.00;2.80;;;;;;;;;;4954569;28;20229;-88
2024/01/21 03:51:20;;;;;;;2.90;2.63;;;;;;;;;;4956812;28;20230;-88
2024/01/21 03:53:48;;;;;;;2.60;2.40;;;;;;;;;;4968352;28;20230;-89
2024/01/21 03:56:18;;;;;;;2.63;2.43;;;;;;;;;;4965751;28;20233;-88
2024/01/21 04:02:31;;;;;;;2.73;2.33;;;;;;;;;;4972033;28;20245;-87
2024/01/21 04:04:58;;;;;;;2.60;2.40;;;;;;;;;;4955990;28;20308;-86
2024/01/21 04:07:24;;;;;;;2.63;2.20;;;;;;;;;;4952280;28;20715;-87
2024/01/21 04:09:50;;;;;;;2.40;2.20;;;;;;;;;;4964362;28;20366;-89
2024/01/21 04:12:15;;;;;;;2.47;2.17;;;;;;;;;;4940447;28;20234;-87
2024/01/21 04:14:41;;;;;;;2.40;2.20;;;;;;;;;;4952670;28;20696;-87
2024/01/21 04:17:09;;;;;;;2.40;2.20;;;;;;;;;;4969669;28;20222;-88
2024/01/21 04:19:35;;;;;;;2.90;2.57;;;;;;;;;;4958344;28;20233;-87
2024/01/21 04:22:01;;;;;;;2.93;2.27;;;;;;;;;;4971367;28;20227;-87
2024/01/21 04:24:29;;;;;;;4.17;2.67;;;;;;;;;;4972759;28;20679;-87
2024/01/21 04:26:55;;;;;;;2.53;2.33;;;;;;;;;;4965296;28;20881;-87
2024/01/21 04:29:23;;;;;;;3.07;2.60;;;;;;;;;;4955248;28;20210;-88
2024/01/21 04:31:51;;;;;;;2.50;2.30;;;;;;;;;;4953408;28;20230;-88
2024/01/21 04:34:17;;;;;;;3.07;2.50;;;;;;;;;;4933181;28;20629;-87
2024/01/21 04:36:43;;;;;;;2.40;2.20;;;;;;;;;;4960096;28;20280;-88
2024/01/21 04:39:08;;;;;;;2.90;2.70;;;;;;;;;;4947532;28;20236;-88
2024/01/21 04:41:34;;;;;;;4.20;2.20;;;;;;;;;;4961539;28;20222;-88
2024/01/21 04:44:00;;;;;;;2.67;2.47;;;;;;;;;;4949557;28;20229;-88
2024/01/21 04:46:26;;;;;;;3.43;2.57;;;;;;;;;;4969173;28;20210;-88
2024/01/21 04:48:51;;;;;;;2.83;2.43;;;;;;;;;;4931610;29;20227;-88
2024/01/21 04:51:17;;;;;;;3.10;2.80;;;;;;;;;;4959512;28;20241;-87
2024/01/21 04:53:44;;;;;;;2.57;2.37;;;;;;;;;;4960130;28;21007;-87
2024/01/21 04:56:18;;;;;;;3.50;2.80;;;;;;;;;;4936929;28;20574;-87
2024/01/21 04:58:46;;;;;;;2.97;2.50;;;;;;;;;;4973253;28;20225;-87
2024/01/21 05:01:12;;;;;;;3.43;3.13;;;;;;;;;;4940758;28;20241;-86
2024/01/21 05:03:38;;;;;;;2.80;2.60;;;;;;;;;;4940162;28;20712;-88
2024/01/21 05:06:04;;;;;;;2.80;2.40;;;;;;;;;;4965267;28;20283;-87
2024/01/21 05:08:29;;;;;;;2.80;2.60;;;;;;;;;;4971014;28;20226;-88
2024/01/21 05:10:55;;;;;;;3.57;2.43;;;;;;;;;;4959427;28;20234;-88
2024/01/21 05:13:21;;;;;;;2.80;2.57;;;;;;;;;;4941611;28;20228;-88
2024/01/21 05:15:46;;;;;;;2.67;2.47;;;;;;;;;;4953485;28;20226;-88
2024/01/21 05:18:12;;;;;;;2.50;2.30;;;;;;;;;;4943878;28;20243;-90
2024/01/21 05:20:38;;;;;;;2.80;2.47;;;;;;;;;;4969691;28;20245;-89
2024/01/21 05:23:03;;;;;;;2.80;2.60;;;;;;;;;;4962613;28;20215;-89
2024/01/21 05:25:29;;;;;;;2.43;2.23;;;;;;;;;;4949539;28;20339;-88
2024/01/21 05:27:59;;;;;;;2.27;2.07;;;;;;;;;;4936217;28;20231;-88
2024/01/21 05:30:24;;;;;;;2.93;2.20;;;;;;;;;;4956238;28;20276;-88
2024/01/21 05:32:51;;;;;;;2.77;2.47;;;;;;;;;;4956132;28;20230;-89
2024/01/21 05:35:17;;;;;;;2.40;2.20;;;;;;;;;;4940790;28;20229;-88
2024/01/21 05:37:42;;;;;;;2.87;2.00;;;;;;;;;;4950651;28;20245;-88
2024/01/21 05:40:08;;;;;;;2.27;2.07;;;;;;;;;;4957641;28;20600;-87
2024/01/21 05:42:34;;;;;;;1.90;1.80;;;;;;;;;;4949538;28;20751;-87
2024/01/21 05:44:59;;;;;;;3.67;2.27;;;;;;;;;;4956118;28;20238;-88
2024/01/21 05:47:25;;;;;;;2.90;2.17;;;;;;;;;;4945058;28;20217;-88
2024/01/21 05:49:53;;;;;;;2.57;1.93;;;;;;;;;;4951902;28;20757;-88
2024/01/21 05:52:18;;;;;;;2.80;2.00;;;;;;;;;;4951315;28;20227;-87
2024/01/21 05:54:44;;;;;;;2.47;2.00;;;;;;;;;;4951836;28;20222;-88
2024/01/21 05:57:12;;;;;;;2.30;1.80;;;;;;;;;;4962660;28;20644;-88
2024/01/21 05:59:37;;;;;;;1.83;1.73;;;;;;;;;;4959931;28;20679;-87
2024/01/21 06:02:07;;;;;;;4.70;2.40;;;;;;;;;;4956266;28;20229;-87
2024/01/21 06:04:35;;;;;;;2.13;1.70;;;;;;;;;;4938705;28;20249;-87
2024/01/21 06:07:00;;;;;;;2.03;1.87;;;;;;;;;;4976534;28;20668;-87
2024/01/21 06:09:28;;;;;;;2.23;2.03;;;;;;;;;;4956163;28;20226;-86
2024/01/21 06:11:56;;;;;;;2.53;1.97;;;;;;;;;;4954987;28;20598;-88
2024/01/21 06:14:26;;;;;;;2.30;2.10;;;;;;;;;;4960926;28;20250;-87
2024/01/21 06:16:52;;;;;;;2.23;2.03;;;;;;;;;;4954451;28;20455;-87
2024/01/21 06:19:20;;;;;;;3.87;2.10;;;;;;;;;;4947984;28;20705;-87
2024/01/21 06:21:50;;;;;;;2.33;2.13;;;;;;;;;;4956516;28;20230;-87
2024/01/21 06:24:17;;;;;;;2.40;2.20;;;;;;;;;;4943893;28;20213;-87
2024/01/21 06:26:43;;;;;;;2.23;2.03;;;;;;;;;;4940292;29;20420;-86
2024/01/21 06:29:11;;;;;;;2.27;1.87;;;;;;;;;;4940720;28;20211;-88
2024/01/21 06:31:36;;;;;;;2.37;2.00;;;;;;;;;;4959678;28;20226;-86
2024/01/21 06:34:02;;;;;;;2.00;1.80;;;;;;;;;;4956857;28;20891;-88
2024/01/21 06:36:30;;;;;;;2.33;1.93;;;;;;;;;;4953491;29;20234;-88
2024/01/21 06:38:55;;;;;;;2.00;1.80;;;;;;;;;;4919647;29;20223;-87
2024/01/21 06:41:23;;;;;;;4.33;2.13;;;;;;;;;;4952501;28;20235;-86
2024/01/21 06:43:51;;;;;;;2.20;2.00;;;;;;;;;;4945248;28;20222;-88
2024/01/21 06:46:18;;;;;;;2.87;2.00;;;;;;;;;;4952073;28;20219;-88
2024/01/21 06:48:48;;;;;;;2.33;2.07;;;;;;;;;;4970195;28;20222;-88
2024/01/21 06:51:30;;;;;;;2.03;1.90;;;;;;;;;;4952101;28;20290;-89
2024/01/21 06:53:57;;;;;;;2.00;1.80;;;;;;;;;;4981132;28;20219;-85
2024/01/21 06:56:26;;;;;;;2.20;1.97;;;;;;;;;;4979177;28;20251;-86
2024/01/21 06:58:54;;;;;;;1.97;1.87;;;;;;;;;;4934269;28;20223;-87
2024/01/21 07:01:19;;;;;;;1.70;1.60;;;;;;;;;;4938885;28;20233;-87
2024/01/21 07:03:48;;;;;;;2.20;2.10;;;;;;;;;;4947276;28;20222;-87
2024/01/21 07:06:18;;;;;;;4.53;2.40;;;;;;;;;;4952932;28;20218;-86
2024/01/21 07:08:43;;;;;;;2.80;2.37;;;;;;;;;;4954731;28;20236;-87
2024/01/21 07:11:09;;;;;;;2.30;2.10;;;;;;;;;;4959385;28;20222;-86
2024/01/21 07:13:36;;;;;;;3.10;2.73;;;;;;;;;;4973804;28;20237;-87
2024/01/21 07:16:03;;;;;;;3.67;2.43;;;;;;;;;;4968811;28;20234;-88
2024/01/21 07:18:28;;;;;;;3.37;2.10;;;;;;;;;;5003496;28;20232;-87
2024/01/21 07:20:56;;;;;;;2.10;2.00;;;;;;;;;;4944703;28;20921;-88
2024/01/21 07:23:24;;;;;;;2.40;2.17;;;;;;;;;;4960112;28;20230;-88
2024/01/21 07:25:49;;;;;;;2.50;2.00;;;;;;;;;;4967969;28;20229;-88
2024/01/21 07:28:17;;;;;;;1.87;1.73;;;;;;;;;;4978028;28;20220;-86
2024/01/21 07:30:44;;;;;;;2.30;2.10;;;;;;;;;;4976586;28;20230;-87
2024/01/21 07:33:12;;;;;;;2.50;2.30;;;;;;;;;;4952806;28;20223;-88
2024/01/21 07:35:38;;;;;;;2.47;2.27;;;;;;;;;;4948917;28;20248;-86
2024/01/21 07:38:04;;;;;;;2.87;2.67;;;;;;;;;;4958423;28;20703;-87
2024/01/21 07:40:31;;;;;;;2.00;1.90;;;;;;;;;;4983978;28;20233;-86
2024/01/21 07:42:59;;;;;;;2.63;2.43;;;;;;;;;;4967987;28;20618;-84
2024/01/21 07:45:25;;;;;;;2.37;2.17;;;;;;;;;;4957375;28;20627;-87
2024/01/21 07:47:53;;;;;;;6.07;5.00;;;;;;;;;;4975166;28;20255;-87
2024/01/21 07:50:22;;;;;;;2.83;2.53;;;;;;;;;;4943920;28;20688;-86
2024/01/21 07:52:51;;;;;;;4.07;2.40;;;;;;;;;;4961158;28;20349;-88
2024/01/21 07:55:16;;;;;;;2.60;2.40;;;;;;;;;;4955757;28;20221;-84
2024/01/21 07:57:49;;;;;;;2.40;2.17;;;;;;;;;;4967137;28;20268;-86
2024/01/21 08:00:19;;;;;;;3.40;2.77;;;;;;;;;;4956800;28;20231;-85
2024/01/21 08:02:47;;;;;;;2.97;2.30;;;;;;;;;;4969323;28;20227;-88
2024/01/21 08:05:14;;;;;;;2.60;2.00;;;;;;;;;;4943057;28;20282;-88
2024/01/21 08:07:40;;;;;;;2.10;2.00;;;;;;;;;;4957777;28;20226;-86
2024/01/21 08:10:06;;;;;;;2.90;2.30;;;;;;;;;;4961028;28;20300;-88
2024/01/21 08:12:34;;;;;;;12.33;11.07;;;;;;;;;;4979177;28;20715;-86
2024/01/21 08:14:59;;;;;;;3.83;2.60;;;;;;;;;;4971044;28;20213;-85
2024/01/21 08:17:26;;;;;;;2.87;2.67;;;;;;;;;;4973375;28;20224;-85
2024/01/21 08:19:53;;;;;;;2.80;2.30;;;;;;;;;;4957782;28;20226;-86
2024/01/21 08:22:22;;;;;;;2.53;2.20;;;;;;;;;;4966205;28;20229;-85
2024/01/21 08:24:53;;;;;;;2.43;2.00;;;;;;;;;;4974087;28;20218;-87
2024/01/21 08:27:18;;;;;;;1.90;1.80;;;;;;;;;;4953935;28;20232;-87
2024/01/21 08:29:46;;;;;;;2.10;1.97;;;;;;;;;;4955829;28;20325;-87
2024/01/21 08:32:12;;;;;;;2.17;1.97;;;;;;;;;;4958620;28;20219;-84
2024/01/21 08:34:38;;;;;;;2.10;1.90;;;;;;;;;;4945419;28;20596;-85
2024/01/21 08:37:04;;;;;;;2.37;2.17;;;;;;;;;;4969895;28;20268;-86
2024/01/21 08:39:30;;;;;;;1.93;1.83;;;;;;;;;;4943108;28;20214;-85
2024/01/21 08:41:57;;;;;;;2.60;1.80;;;;;;;;;;4953782;28;20214;-86
2024/01/21 08:44:23;;;;;;;1.90;1.80;;;;;;;;;;4961279;28;20222;-86
2024/01/21 08:46:49;;;;;;;2.50;2.30;;;;;;;;;;4974637;28;20209;-87
2024/01/21 08:49:17;;;;;;;2.00;1.77;;;;;;;;;;4972230;28;20571;-85
2024/01/21 08:51:45;;;;;;;2.37;2.17;;;;;;;;;;4990959;28;20275;-86
2024/01/21 08:54:11;;;;;;;2.30;2.10;;;;;;;;;;4957615;28;20234;-86
2024/01/21 08:56:40;;;;;;;2.33;1.90;;;;;;;;;;4974071;28;20225;-84
2024/01/21 08:59:05;;;;;;;2.57;1.90;;;;;;;;;;4973132;28;20228;-88
2024/01/21 09:01:31;;;;;;;1.97;1.70;;;;;;;;;;4961699;28;20246;-85
2024/01/21 09:03:59;;;;;;;2.00;1.77;;;;;;;;;;4965108;28;20252;-87
2024/01/21 09:06:25;;;;;;;2.10;1.70;;;;;;;;;;4987053;28;20211;-88
2024/01/21 09:08:53;;;;;;;2.70;2.03;;;;;;;;;;4974652;28;20282;-88
2024/01/21 09:11:20;;;;;;;2.13;1.73;;;;;;;;;;4945010;28;20257;-87
2024/01/21 09:13:46;;;;;;;2.97;2.00;;;;;;;;;;4965045;28;20587;-86
2024/01/21 09:16:19;;;;;;;3.30;1.80;;;;;;;;;;4982795;28;20229;-86
2024/01/21 09:18:45;;;;;;;2.90;2.53;;;;;;;;;;4967656;28;20252;-85
2024/01/21 09:21:13;;;;;;;4.33;2.40;;;;;;;;;;4976529;28;20555;-86
2024/01/21 09:23:39;;;;;;;2.50;2.30;;;;;;;;;;4974864;28;20231;-86
2024/01/21 09:26:04;;;;;;;2.40;2.20;;;;;;;;;;4985532;28;20695;-88
2024/01/21 09:28:30;;;;;;;2.17;1.97;;;;;;;;;;4958197;28;20222;-86
2024/01/21 09:30:55;;;;;;;2.07;1.87;;;;;;;;;;4979385;28;20305;-87
2024/01/21 09:33:21;;;;;;;2.30;2.10;;;;;;;;;;4977648;28;20234;-85
2024/01/21 09:35:47;;;;;;;1.90;1.80;;;;;;;;;;4967489;28;20221;-83
2024/01/21 09:38:14;;;;;;;2.70;1.90;;;;;;;;;;4958849;28;20222;-85
2024/01/21 09:40:40;;;;;;;2.17;1.80;;;;;;;;;;4969355;28;20296;-76
2024/01/21 09:43:08;;;;;;;1.93;1.80;;;;;;;;;;4952741;28;20218;-76
2024/01/21 09:45:36;;;;;;;2.20;1.83;;;;;;;;;;4969395;28;20230;-77
2024/01/21 09:48:02;;;;;;;3.20;2.03;;;;;;;;;;4972739;28;20241;-76
2024/01/21 09:50:31;;;;;;;3.03;1.93;;;;;;;;;;4941850;28;20236;-76
2024/01/21 09:52:57;;;;;;;2.67;1.93;;;;;;;;;;4966867;28;20328;-77
2024/01/21 09:55:28;;;;;;;2.60;2.07;;;;;;;;;;4949404;28;20226;-76
2024/01/21 09:57:54;;;;;;;3.60;1.97;;;;;;;;;;4946700;28;20234;-76
2024/01/21 10:00:20;;;;;;;2.30;1.60;;;;;;;;;;4949393;28;20222;-78
2024/01/21 10:02:47;;;;;;;3.40;2.07;;;;;;;;;;4943980;28;20230;-75
2024/01/21 10:05:13;;;;;;;2.70;1.80;;;;;;;;;;4968901;28;20241;-75
2024/01/21 10:07:41;;;;;;;2.40;2.20;;;;;;;;;;4969001;28;20226;-76
2024/01/21 10:10:12;;;;;;;3.17;2.17;;;;;;;;;;4970151;28;20284;-78
2024/01/21 10:12:37;;;;;;;2.83;2.10;;;;;;;;;;4929685;28;20244;-76
2024/01/21 10:15:03;;;;;;;4.43;2.10;;;;;;;;;;4970754;28;20258;-77
2024/01/21 10:17:28;;;;;;;2.63;1.93;;;;;;;;;;4921109;28;20332;-76
2024/01/21 10:19:57;;;;;;;3.40;2.10;;;;;;;;;;4952535;28;20225;-77
2024/01/21 10:22:27;;;;;;;2.30;2.10;;;;;;;;;;4966963;28;20229;-76
2024/01/21 10:24:52;;;;;;;2.70;1.90;;;;;;;;;;4920962;28;20499;-77
2024/01/21 10:27:18;;;;;;;2.00;1.70;;;;;;;;;;4951014;28;20236;-77
2024/01/21 10:29:47;;;;;;;3.33;2.20;;;;;;;;;;4951912;28;20230;-77
2024/01/21 10:32:18;;;;;;;2.80;2.10;;;;;;;;;;4950520;28;20229;-77
2024/01/21 10:34:45;;;;;;;3.03;2.47;;;;;;;;;;4945643;28;20247;-77
2024/01/21 10:37:13;;;;;;;3.50;3.20;;;;;;;;;;4965142;28;20237;-76
2024/01/21 10:39:38;;;;;;;2.10;1.90;;;;;;;;;;4928104;28;20230;-76
2024/01/21 10:42:05;;;;;;;2.80;2.33;;;;;;;;;;4965834;28;20261;-77
2024/01/21 10:44:30;;;;;;;1.90;1.80;;;;;;;;;;4951855;28;20872;-77
2024/01/21 10:46:56;;;;;;;2.73;2.37;;;;;;;;;;4960032;28;20210;-76
2024/01/21 10:49:23;;;;;;;3.10;2.10;;;;;;;;;;4943926;28;20281;-76
2024/01/21 10:51:52;;;;;;;2.80;1.80;;;;;;;;;;4950686;28;20234;-76
2024/01/21 10:54:18;;;;;;;2.90;2.17;;;;;;;;;;4964597;28;20304;-76
2024/01/21 10:56:43;;;;;;;1.73;1.63;;;;;;;;;;4940551;28;20218;-75
2024/01/21 10:59:10;;;;;;;2.63;2.00;;;;;;;;;;4963559;28;20832;-76
2024/01/21 11:01:38;;;;;;;2.60;2.10;;;;;;;;;;4966752;28;20230;-79
2024/01/21 11:04:07;;;;;;;2.10;1.90;;;;;;;;;;4968144;28;20222;-79
2024/01/21 11:06:35;;;;;;;2.30;2.10;;;;;;;;;;4967139;28;20231;-76
2024/01/21 11:09:04;;;;;;;4.00;2.30;;;;;;;;;;4960651;28;20230;-78
2024/01/21 11:11:30;;;;;;;2.50;2.00;;;;;;;;;;4938102;28;20883;-78
2024/01/21 11:13:58;;;;;;;5.97;3.10;;;;;;;;;;4944747;28;20231;-77
2024/01/21 11:16:26;;;;;;;2.50;2.10;;;;;;;;;;4966599;28;20323;-78
2024/01/21 11:19:07;;;;;;;2.13;2.00;;;;;;;;;;4977253;28;20298;-77
2024/01/21 11:21:40;;;;;;;2.60;2.40;;;;;;;;;;4951840;28;20747;-77
2024/01/21 11:24:07;;;;;;;2.73;2.00;;;;;;;;;;4951975;28;20304;-77
2024/01/21 11:26:36;;;;;;;2.37;2.13;;;;;;;;;;4970483;28;20308;-75
2024/01/21 11:29:27;;;;;;;2.40;2.20;;;;;;;;;;4984684;28;20214;-77
2024/01/21 11:31:59;;;;;;;3.00;2.03;;;;;;;;;;4953755;28;20238;-77
2024/01/21 11:34:25;;;;;;;2.63;1.97;;;;;;;;;;4952707;28;20684;-76
2024/01/21 11:36:51;;;;;;;4.83;2.30;;;;;;;;;;4967857;28;20222;-77
2024/01/21 11:39:24;;;;;;;3.33;2.33;;;;;;;;;;4949254;28;20226;-77
2024/01/21 11:41:52;;;;;;;3.67;2.20;;;;;;;;;;4967787;28;20349;-78
2024/01/21 11:44:22;;;;;;;3.27;2.30;;;;;;;;;;4967617;28;20228;-76
2024/01/21 11:46:48;;;;;;;3.00;2.17;;;;;;;;;;4968781;28;20292;-76
2024/01/21 11:49:14;;;;;;;2.13;1.93;;;;;;;;;;4968111;28;20236;-76
2024/01/21 11:51:39;;;;;;;3.47;2.50;;;;;;;;;;4969286;28;20225;-77
2024/01/21 11:54:05;;;;;;;3.20;2.83;;;;;;;;;;4961850;28;20214;-78
2024/01/21 11:56:37;;;;;;;6.37;4.93;;;;;;;;;;4952347;28;20226;-77
2024/01/21 11:59:08;;;;;;;5.40;3.80;;;;;;;;;;4952350;28;20221;-77
2024/01/21 12:01:37;;;;;;;11.00;7.50;;;;;;;;;;4944869;28;20232;-77
2024/01/21 12:04:06;;;;;;;6.17;3.87;;;;;;;;;;4953217;28;20214;-78
2024/01/21 12:06:42;;;;;;;13.73;8.93;;;;;;;;;;4946259;28;20252;-79
2024/01/21 12:09:10;;;;;;;11.33;7.77;;;;;;;;;;4970387;28;20337;-78
2024/01/21 12:11:39;;;;;;;17.70;10.60;;;;;;;;;;4956191;28;20238;-78
2024/01/21 12:14:09;;;;;;;8.13;6.07;;;;;;;;;;4944798;28;20230;-76
2024/01/21 12:16:35;;;;;;;5.47;3.33;;;;;;;;;;4946981;28;20345;-77
2024/01/21 12:19:03;;;;;;;3.37;2.83;;;;;;;;;;4929560;28;20312;-78
2024/01/21 12:21:30;;;;;;;3.10;2.60;;;;;;;;;;4956217;28;20229;-76
2024/01/21 12:23:58;;;;;;;3.37;3.00;;;;;;;;;;4952776;28;20238;-78
2024/01/21 12:26:24;;;;;;;3.93;2.97;;;;;;;;;;4954425;28;20257;-78
2024/01/21 12:28:59;;;;;;;3.20;2.90;;;;;;;;;;4963579;28;20230;-78
2024/01/21 12:31:29;;;;;;;26.83;24.13;;;;;;;;;;4971903;28;20279;-78
2024/01/21 12:33:59;;;;;;;7.37;4.67;;;;;;;;;;4960594;28;20230;-78
2024/01/21 12:36:31;;;;;;;5.37;4.07;;;;;;;;;;4955220;28;20695;-78
2024/01/21 12:38:56;;;;;;;8.73;5.30;;;;;;;;;;4937997;28;20246;-78
2024/01/21 12:41:22;;;;;;;3.43;3.13;;;;;;;;;;4951589;28;20238;-76
2024/01/21 12:43:53;;;;;;;5.80;4.70;;;;;;;;;;4932115;28;20230;-76
2024/01/21 12:46:19;;;;;;;3.30;3.00;;;;;;;;;;4952342;28;20249;-77
2024/01/21 12:48:46;;;;;;;3.67;2.90;;;;;;;;;;4969939;28;20250;-78
2024/01/21 12:51:12;;;;;;;3.33;2.97;;;;;;;;;;4961115;28;20230;-78
2024/01/21 12:53:38;;;;;;;6.43;3.53;;;;;;;;;;4972635;28;20230;-76
2024/01/21 12:56:03;;;;;;;5.83;4.30;;;;;;;;;;4972996;28;20228;-75
2024/01/21 12:58:29;;;;;;;5.53;4.50;;;;;;;;;;4969648;28;20805;-79
2024/01/21 13:00:57;;;;;;;76.70;68.90;;;;;;;;;;4933979;28;20230;-74
2024/01/21 13:03:26;;;;;;;11.70;8.80;;;;;;;;;;4989149;28;20225;-75
2024/01/21 13:05:52;;;;;;;3.90;3.30;;;;;;;;;;4952577;28;20223;-77
2024/01/21 13:08:18;;;;;;;4.17;3.20;;;;;;;;;;4969952;28;20225;-77
2024/01/21 13:10:43;;;;;;;4.63;4.10;;;;;;;;;;4973232;28;20230;-77
2024/01/21 13:13:09;;;;;;;3.77;3.47;;;;;;;;;;4940782;28;20229;-79
2024/01/21 13:15:34;;;;;;;6.67;4.63;;;;;;;;;;4974392;28;20230;-79
2024/01/21 13:18:00;;;;;;;4.03;3.63;;;;;;;;;;4956744;28;20233;-78
2024/01/21 13:20:26;;;;;;;3.97;2.90;;;;;;;;;;4957688;28;20232;-78
2024/01/21 13:22:52;;;;;;;3.50;3.20;;;;;;;;;;4953873;28;20277;-76
2024/01/21 13:25:23;;;;;;;4.13;3.60;;;;;;;;;;4954809;28;20229;-77
2024/01/21 13:30:53;;;;;;;3.70;3.37;;;;;;;;;;4961246;28;20226;-79
2024/01/21 13:33:22;;;;;;;3.33;2.97;;;;;;;;;;4968817;28;20215;-78
2024/01/21 13:35:48;;;;;;;3.53;3.23;;;;;;;;;;4975304;28;20237;-80
2024/01/21 13:38:29;;;;;;;3.30;3.00;;;;;;;;;;4935958;28;20229;-77
2024/01/21 13:40:57;;;;;;;4.50;3.30;;;;;;;;;;4958213;28;20689;-78
2024/01/21 13:43:23;;;;;;;4.37;3.60;;;;;;;;;;4954230;28;20221;-78
2024/01/21 13:45:50;;;;;;;3.83;3.40;;;;;;;;;;4928376;28;20745;-78
2024/01/21 13:48:19;;;;;;;4.23;3.83;;;;;;;;;;4955095;28;20282;-78
2024/01/21 13:51:55;;;;;;;4.20;3.80;;;;;;;;;;5023624;28;20307;-80
2024/01/21 13:54:21;;;;;;;8.63;5.27;;;;;;;;;;5002184;28;20266;-79
2024/01/21 13:56:49;;;;;;;4.33;3.90;;;;;;;;;;4979623;28;20624;-76
2024/01/21 13:59:14;;;;;;;4.70;4.30;;;;;;;;;;4970241;28;20226;-78
2024/01/21 14:01:40;;;;;;;4.70;3.60;;;;;;;;;;4981696;28;20312;-77
2024/01/21 14:04:05;;;;;;;4.13;3.77;;;;;;;;;;4982750;28;20627;-77
2024/01/21 14:06:31;;;;;;;4.13;3.77;;;;;;;;;;4981656;28;20220;-78
2024/01/21 14:09:14;;;;;;;4.03;3.70;;;;;;;;;;4993149;28;20312;-78
2024/01/21 14:11:40;;;;;;;5.67;4.27;;;;;;;;;;4973855;28;20258;-77
2024/01/21 14:14:06;;;;;;;4.87;4.37;;;;;;;;;;4972996;28;20217;-79
2024/01/21 14:16:34;;;;;;;5.10;4.23;;;;;;;;;;4975823;28;20226;-78
2024/01/21 14:19:00;;;;;;;5.03;4.10;;;;;;;;;;4983690;28;20310;-76
2024/01/21 14:21:25;;;;;;;5.07;4.03;;;;;;;;;;4973173;28;20282;-75
2024/01/21 14:23:55;;;;;;;7.20;4.10;;;;;;;;;;4985041;28;20919;-75
2024/01/21 14:26:21;;;;;;;4.40;4.00;;;;;;;;;;5009084;28;20272;-76
2024/01/21 14:28:49;;;;;;;6.20;4.13;;;;;;;;;;4982354;28;20303;-75
2024/01/21 14:31:19;;;;;;;6.23;4.53;;;;;;;;;;4985368;28;20682;-75
2024/01/21 14:33:47;;;;;;;4.90;4.43;;;;;;;;;;4983842;28;20247;-76
2024/01/21 14:36:17;;;;;;;4.97;4.17;;;;;;;;;;4980055;28;20594;-78
2024/01/21 14:38:43;;;;;;;5.00;4.27;;;;;;;;;;4968825;28;20236;-76
2024/01/21 14:41:08;;;;;;;6.43;5.30;;;;;;;;;;4995943;28;20339;-76
2024/01/21 14:43:39;;;;;;;6.20;5.03;;;;;;;;;;4979429;28;20224;-77
2024/01/21 14:46:05;;;;;;;10.13;6.90;;;;;;;;;;4998165;28;20225;-75
2024/01/21 14:48:30;;;;;;;10.37;8.13;;;;;;;;;;4992507;28;20221;-76
2024/01/21 14:50:58;;;;;;;7.50;6.53;;;;;;;;;;4975548;28;20244;-75